Flight Track Log - Related Links

Times and Time Zones

All times are in EDT time to prevent confusion due to time zone crossing. See the EMD21 flight status page for this flight to view local times or setup timezone preferences in your user account.

Time Position Orientation Groundspeed Altitude Reporting Facility
EDT Latitude Longitude Course Direction KTS MPH feet Rate Location/Type
Mon 08:15:50 AM 29.6350 -95.2844 32° Northeast 131 151 600  Level Houston Center
Mon 08:17:06 AM 29.6681 -95.2606 32° Northeast 164 189 2,200 1,182 Climbing Houston Center
Mon 08:18:07 AM 29.7169 -95.2533 North 171 197 3,300 1,279 Climbing Houston Center
Mon 08:19:08 AM 29.7619 -95.2547 358° North 163 188 4,800 1,366 Climbing Houston Center
Mon 08:20:10 AM 29.8014 -95.2772 334° Northwest 159 183 6,100 1,296 Climbing Houston Center
Mon 08:21:13 AM 29.8511 -95.3039 335° Northwest 173 199 7,500 1,122 Climbing Houston Center
Mon 08:22:13 AM 29.8867 -95.3194 339° North 168 193 8,400 992 Climbing Houston Center
Mon 08:23:14 AM 29.9311 -95.3414 337° Northwest 172 198 9,500 1,230 Climbing Houston Center
Mon 08:24:15 AM 29.9847 -95.3708 335° Northwest 176 203 10,900 1,171 Climbing Houston Center
Mon 08:25:17 AM 30.0314 -95.3939 337° Northwest 180 207 11,900 878 Climbing Houston Center
Mon 08:26:18 AM 30.0819 -95.4047 349° North 187 215 12,700 738 Climbing Houston Center
Mon 08:27:19 AM 30.1383 -95.4056 359° North 198 228 13,400 732 Climbing Houston Center
Mon 08:28:21 AM 30.1944 -95.4114 355° North 202 232 14,200 634 Climbing Houston Center
Mon 08:29:22 AM 30.2508 -95.4142 358° North 202 232 14,700 683 Climbing Houston Center
Mon 08:30:24 AM 30.3058 -95.4217 353° North 200 230 15,600 634 Climbing Houston Center
Mon 08:31:25 AM 30.3606 -95.4242 358° North 196 226 16,000 244 Climbing Houston Center
Mon 08:32:27 AM 30.4342 -95.4256 359° North 217 250 16,100 49 Climbing Houston Center
Mon 08:33:28 AM 30.4983 -95.4319 355° North 230 265 16,100  Level Houston Center
Mon 08:34:30 AM 30.5642 -95.4347 358° North 236 272 16,100  Level Houston Center
Mon 08:35:32 AM 30.6294 -95.4411 355° North 236 272 16,100  Level Houston Center
Mon 08:36:33 AM 30.7022 -95.4519 353° North 236 272 16,100 -49 Level Houston Center
Mon 08:37:35 AM 30.7683 -95.4508 North 236 272 16,000  Descending Houston Center
Mon 08:38:36 AM 30.8356 -95.4550 357° North 239 275 16,100 49 Climbing Houston Center
Mon 08:39:38 AM 30.9008 -95.4667 351° North 238 274 16,100 -49 Level Houston Center
Mon 08:40:39 AM 30.9683 -95.4686 359° North 241 277 16,000  Descending Houston Center
Mon 08:41:41 AM 31.0353 -95.4706 359° North 239 275 16,100  Climbing Houston Center
Mon 08:42:43 AM 31.1014 -95.4797 353° North 239 275 16,000  Descending Houston Center
Mon 08:43:44 AM 31.1683 -95.4828 358° North 240 276 16,100 49 Climbing Houston Center
Mon 08:44:46 AM 31.2481 -95.4875 357° North 238 274 16,100 -48 Level Houston Center
Mon 08:45:48 AM 31.3147 -95.4956 354° North 238 274 16,000  Descending Houston Center
Mon 08:46:49 AM 31.3817 -95.4975 359° North 241 277 16,100 49 Climbing Houston Center
Mon 08:47:51 AM 31.4475 -95.5033 356° North 237 273 16,100 -48 Level Houston Center
Mon 08:48:53 AM 31.5133 -95.5119 354° North 237 273 16,000  Descending Houston Center
Mon 08:49:55 AM 31.5800 -95.5125 360° North 238 274 16,100  Climbing Houston Center
Mon 08:50:56 AM 31.6472 -95.5172 357° North 240 276 16,000 -117 Descending Houston Center
Mon 08:51:38 AM 31.7003 -95.5283 350° North 232 267 15,900  Descending Fort Worth Center
Mon 08:52:38 AM 31.7650 -95.5319 357° North 232 267 16,000 50 Climbing Fort Worth Center
Mon 08:53:38 AM 31.8319 -95.5356 357° North 237 273 16,000  Level Fort Worth Center
Mon 08:54:38 AM 31.8947 -95.5439 354° North 237 273 16,000  Level Fort Worth Center
Mon 08:55:38 AM 31.9614 -95.5450 359° North 237 273 16,000 -50 Level Fort Worth Center
Mon 08:56:38 AM 32.0264 -95.5511 355° North 237 273 15,900 -50 Descending Fort Worth Center
Mon 08:57:38 AM 32.0911 -95.5569 356° North 237 273 15,900 50 Level Fort Worth Center
Mon 08:58:38 AM 32.1581 -95.5606 357° North 237 273 16,000  Climbing Fort Worth Center
Mon 08:59:38 AM 32.2083 -95.5669 354° North 237 273 15,900  Descending Fort Worth Center
Mon 09:00:38 AM 32.2792 -95.5731 356° North 237 273 16,000 50 Climbing Fort Worth Center
Mon 09:01:38 AM 32.3461 -95.5739 359° North 231 266 16,000  Level Fort Worth Center
Mon 09:02:38 AM 32.4089 -95.5825 353° North 237 273 16,000 -50 Level Fort Worth Center
Mon 09:03:38 AM 32.4736 -95.5886 355° North 237 273 15,900 -50 Descending Fort Worth Center
Mon 09:04:38 AM 32.5383 -95.5897 359° North 237 273 15,900 50 Level Fort Worth Center
Mon 09:05:38 AM 32.6031 -95.5958 355° North 237 273 16,000 50 Climbing Fort Worth Center
Mon 09:06:38 AM 32.6700 -95.6044 354° North 237 273 16,000  Level Fort Worth Center
Mon 09:07:38 AM 32.7306 -95.6058 359° North 237 273 16,000  Level Fort Worth Center
Mon 09:08:38 AM 32.8081 -95.6139 355° North 237 273 16,000 -50 Level Fort Worth Center
Mon 09:09:38 AM 32.8667 -95.6178 357° North 237 273 15,900 -50 Descending Fort Worth Center
Mon 09:10:38 AM 32.9397 -95.6214 358° North 237 273 15,900  Level Fort Worth Center
Mon 09:11:38 AM 32.9981 -95.6275 355° North 237 273 15,900  Level Fort Worth Center
Mon 09:12:38 AM 33.0733 -95.6358 355° North 237 273 15,900 50 Level Fort Worth Center
Mon 09:13:38 AM 33.1319 -95.6372 359° North 237 273 16,000 50 Climbing Fort Worth Center
Mon 09:14:38 AM 33.2031 -95.6458 354° North 237 273 16,000  Level Fort Worth Center
Mon 09:15:38 AM 33.2594 -95.6497 357° North 237 273 16,000  Level Fort Worth Center
Mon 09:16:38 AM 33.3306 -95.6533 358° North 237 273 16,000  Level Fort Worth Center
Mon 09:17:38 AM 33.3869 -95.6594 355° North 237 273 16,000 -50 Level Fort Worth Center
Mon 09:18:38 AM 33.4558 -95.6631 357° North 232 267 15,900  Descending Fort Worth Center
Mon 09:19:38 AM 33.5142 -95.6669 357° North 232 267 16,000  Climbing Fort Worth Center
Mon 09:20:38 AM 33.5750 -95.6758 353° North 226 260 15,900 -50 Descending Fort Worth Center
Mon 09:21:38 AM 33.6375 -95.6794 357° North 226 260 15,900  Level Fort Worth Center
Mon 09:22:38 AM 33.7044 -95.6806 359° North 221 254 15,900 -400 Level Fort Worth Center
Mon 09:23:38 AM 33.7714 -95.6894 354° North 226 260 15,100 -900 Descending Fort Worth Center
Mon 09:24:38 AM 33.8422 -95.6956 356° North 244 281 14,100 -900 Descending Fort Worth Center
Mon 09:25:38 AM 33.9133 -95.6967 359° North 255 293 13,300 -750 Descending Fort Worth Center
Mon 09:26:38 AM 33.9803 -95.7078 352° North 250 288 12,600 -600 Descending Fort Worth Center
Mon 09:27:38 AM 34.0492 -95.7139 356° North 245 282 12,100 -600 Descending Fort Worth Center
Mon 09:28:38 AM 34.1161 -95.7178 357° North 245 282 11,400 -650 Descending Fort Worth Center
Mon 09:29:38 AM 34.1850 -95.7289 352° North 240 276 10,800 -750 Descending Fort Worth Center
Mon 09:30:38 AM 34.2561 -95.7325 358° North 240 276 9,900 -900 Descending Fort Worth Center
Mon 09:31:38 AM 34.3292 -95.7311 North 246 283 9,000 -800 Descending Fort Worth Center
Mon 09:32:38 AM 34.3939 -95.7475 348° North 252 290 8,300 -750 Descending Fort Worth Center
Mon 09:33:38 AM 34.4628 -95.7536 356° North 247 284 7,500 -700 Descending Fort Worth Center
Mon 09:34:38 AM 34.5317 -95.7497 North 247 284 6,900 -850 Descending Fort Worth Center
Mon 09:35:38 AM 34.6006 -95.7611 352° North 247 284 5,800 -1,050 Descending Fort Worth Center
Mon 09:36:38 AM 34.6694 -95.7622 359° North 247 284 4,800 -1,000 Descending Fort Worth Center

Login

Don't have an account? Register now (free) for customized features, flight alerts, and more!